Time;durP1;ratioP1;P1;durP2;ratioP2;P2;SDS_P1;SDS_P2;PMS_P1;PMS_P2;Temp;Humidity;BMP_temperature;BMP_pressure;BME280_temperature;BME280_humidity;BME280_pressure;Samples;Min_cycle;Max_cycle;Signal;HPM_P1;HPM_P2
2022/07/17 00:01:07;;;;;;;13.32;8.48;;;;;;;12.48;100.00;100827.45;1802963;79;20979;-41
2022/07/17 00:03:35;;;;;;;13.55;8.43;;;;;;;12.44;100.00;100825.81;1805021;79;20905;-41
2022/07/17 00:06:02;;;;;;;16.17;9.18;;;;;;;12.41;100.00;100834.97;1781935;79;21006;-42
2022/07/17 00:08:31;;;;;;;12.68;7.85;;;;;;;12.40;100.00;100825.05;1799366;79;21164;-42
2022/07/17 00:10:58;;;;;;;13.93;8.15;;;;;;;12.39;100.00;100816.84;1801645;79;20897;-42
2022/07/17 00:13:26;;;;;;;11.33;7.45;;;;;;;12.35;100.00;100808.25;1789830;79;20943;-42
2022/07/17 00:15:54;;;;;;;8.98;7.40;;;;;;;12.33;100.00;100806.56;1803058;79;20869;-42
2022/07/17 00:18:21;;;;;;;11.68;7.28;;;;;;;12.29;100.00;100805.78;1798168;79;20952;-42
2022/07/17 00:20:48;;;;;;;9.28;7.05;;;;;;;12.27;100.00;100802.80;1798519;79;21374;-43
2022/07/17 00:23:15;;;;;;;10.23;7.00;;;;;;;12.25;100.00;100798.08;1798102;79;20976;-42
2022/07/17 00:25:41;;;;;;;12.78;6.75;;;;;;;12.22;100.00;100798.98;1806068;78;20944;-42
2022/07/17 00:28:08;;;;;;;7.72;6.35;;;;;;;12.16;100.00;100794.80;1789798;79;20900;-41
2022/07/17 00:30:37;;;;;;;16.48;6.12;;;;;;;12.10;100.00;100800.54;1803735;79;20912;-41
2022/07/17 00:33:04;;;;;;;8.80;5.97;;;;;;;12.09;100.00;100806.61;1802097;79;21218;-41
2022/07/17 00:35:31;;;;;;;9.25;6.10;;;;;;;12.04;100.00;100816.64;1794225;78;20987;-42
2022/07/17 00:37:58;;;;;;;9.75;5.85;;;;;;;12.16;100.00;100809.06;1799752;79;20986;-43
2022/07/17 00:40:24;;;;;;;13.22;7.05;;;;;;;12.33;100.00;100799.64;1793280;79;20978;-42
2022/07/17 00:42:52;;;;;;;12.50;7.40;;;;;;;12.48;100.00;100797.59;1801321;78;21493;-42
2022/07/17 00:45:19;;;;;;;13.45;6.90;;;;;;;12.57;100.00;100794.83;1797450;78;21142;-41
2022/07/17 00:47:59;;;;;;;12.43;6.70;;;;;;;12.62;100.00;100790.81;1795054;78;20946;-42
2022/07/17 00:50:30;;;;;;;10.18;6.67;;;;;;;12.62;100.00;100792.98;1807278;78;20908;-42
2022/07/17 00:52:56;;;;;;;9.48;6.20;;;;;;;12.64;100.00;100785.17;1799044;78;20995;-42
2022/07/17 00:55:24;;;;;;;10.50;6.92;;;;;;;12.70;100.00;100790.66;1793808;78;20913;-42
2022/07/17 00:57:51;;;;;;;12.23;7.05;;;;;;;12.71;100.00;100789.77;1801830;78;21855;-40
2022/07/17 01:00:18;;;;;;;8.05;6.45;;;;;;;12.72;100.00;100785.84;1806948;78;20947;-41
2022/07/17 01:02:51;;;;;;;6.85;5.83;;;;;;;12.76;100.00;100786.64;1806572;78;21536;-41
2022/07/17 01:05:19;;;;;;;7.37;5.92;;;;;;;12.77;100.00;100784.45;1815007;78;20897;-42
2022/07/17 01:07:46;;;;;;;12.45;6.55;;;;;;;12.75;100.00;100766.72;1795744;78;20983;-41
2022/07/17 01:10:13;;;;;;;10.23;5.92;;;;;;;12.75;100.00;100765.00;1803111;78;21067;-42
2022/07/17 01:12:40;;;;;;;11.75;6.30;;;;;;;12.74;100.00;100767.61;1807685;78;20905;-42
2022/07/17 01:15:10;;;;;;;10.85;5.42;;;;;;;12.74;100.00;100771.51;1805827;78;20932;-42
2022/07/17 01:17:39;;;;;;;7.50;5.85;;;;;;;12.74;100.00;100771.08;1806394;78;21519;-42
2022/07/17 01:20:08;;;;;;;8.55;5.40;;;;;;;12.71;100.00;100775.48;1804884;78;20920;-42
2022/07/17 01:22:44;;;;;;;12.33;5.95;;;;;;;12.70;100.00;100776.36;1811804;78;21462;-41
2022/07/17 01:25:11;;;;;;;8.30;5.45;;;;;;;12.71;100.00;100767.69;1797832;78;28147;-41
2022/07/17 01:27:38;;;;;;;9.58;5.50;;;;;;;12.75;100.00;100765.42;1803837;78;21003;-41
2022/07/17 01:30:07;;;;;;;12.15;5.80;;;;;;;12.85;100.00;100762.17;1805809;78;20975;-42
2022/07/17 01:32:38;;;;;;;11.05;5.70;;;;;;;12.93;100.00;100765.47;1803756;78;21462;-43
2022/07/17 01:35:06;;;;;;;9.98;5.72;;;;;;;12.93;100.00;100761.11;1798692;78;21934;-41
2022/07/17 01:37:34;;;;;;;10.53;5.25;;;;;;;12.88;100.00;100762.10;1794306;78;20917;-41
2022/07/17 01:40:01;;;;;;;8.35;5.40;;;;;;;12.81;100.00;100757.52;1797313;78;21029;-41
2022/07/17 01:42:28;;;;;;;7.60;5.50;;;;;;;12.74;100.00;100756.80;1793672;78;21600;-42
2022/07/17 01:44:56;;;;;;;9.90;5.47;;;;;;;12.67;100.00;100760.43;1803068;78;20865;-42
2022/07/17 01:47:23;;;;;;;10.65;4.97;;;;;;;12.58;100.00;100758.02;1798371;78;21141;-42
2022/07/17 01:49:56;;;;;;;12.90;5.85;;;;;;;12.51;100.00;100746.93;1789827;78;20932;-42
2022/07/17 01:52:24;;;;;;;16.95;6.60;;;;;;;12.47;100.00;100753.05;1783087;78;21095;-42
2022/07/17 01:54:51;;;;;;;6.85;5.58;;;;;;;12.48;100.00;100750.87;1786359;78;20960;-41
2022/07/17 01:57:18;;;;;;;11.93;5.42;;;;;;;12.44;100.00;100750.09;1818365;78;20947;-42
2022/07/17 01:59:45;;;;;;;8.58;5.83;;;;;;;12.41;100.00;100744.98;1797623;78;21145;-42
2022/07/17 02:02:15;;;;;;;6.17;5.58;;;;;;;12.40;100.00;100748.89;1810039;77;21011;-42
2022/07/17 02:04:43;;;;;;;12.15;5.80;;;;;;;12.43;100.00;100746.22;1820700;77;21537;-42
2022/07/17 02:07:09;;;;;;;9.93;5.42;;;;;;;12.43;100.00;100748.81;1811840;77;20925;-42
2022/07/17 02:09:38;;;;;;;15.48;5.90;;;;;;;12.44;100.00;100751.82;1807067;77;21011;-41
2022/07/17 02:12:05;;;;;;;7.72;5.35;;;;;;;12.50;100.00;100755.58;1823069;77;22323;-41
2022/07/17 02:14:32;;;;;;;9.35;5.72;;;;;;;12.58;100.00;100765.38;1801164;77;20937;-42
2022/07/17 02:16:59;;;;;;;8.28;5.78;;;;;;;12.64;100.00;100762.63;1816249;78;21003;-42
2022/07/17 02:19:26;;;;;;;7.72;5.10;;;;;;;12.71;100.00;100760.77;1806623;77;20964;-42
2022/07/17 02:21:52;;;;;;;10.15;5.17;;;;;;;12.77;100.00;100761.91;1813219;77;21067;-42
2022/07/17 02:24:20;;;;;;;9.93;5.47;;;;;;;12.82;100.00;100766.14;1814125;77;21127;-42
2022/07/17 02:26:47;;;;;;;11.05;5.00;;;;;;;12.89;100.00;100758.64;1804440;78;21476;-42
2022/07/17 02:29:13;;;;;;;7.15;5.28;;;;;;;12.97;100.00;100759.31;1800738;78;20982;-42
2022/07/17 02:31:40;;;;;;;10.03;5.40;;;;;;;13.08;100.00;100762.95;1804819;78;20958;-42
2022/07/17 02:34:07;;;;;;;7.80;5.28;;;;;;;13.25;100.00;100773.37;1820711;78;20916;-41
2022/07/17 02:36:34;;;;;;;8.95;4.85;;;;;;;13.38;100.00;100774.78;1789756;78;21236;-41
2022/07/17 02:39:01;;;;;;;7.45;4.83;;;;;;;13.53;100.00;100770.13;1783760;78;20982;-42
2022/07/17 02:41:28;;;;;;;8.80;5.22;;;;;;;13.67;100.00;100761.50;1817028;78;21447;-41
2022/07/17 02:43:56;;;;;;;8.98;5.60;;;;;;;13.80;100.00;100749.02;1815613;78;21585;-41
2022/07/17 02:46:23;;;;;;;4.70;4.30;;;;;;;13.91;100.00;100747.42;1774865;79;20982;-41
2022/07/17 02:48:49;;;;;;;7.87;4.92;;;;;;;14.04;100.00;100754.45;1815790;78;21402;-42
2022/07/17 02:51:16;;;;;;;10.03;3.95;;;;;;;14.17;100.00;100758.85;1805544;77;21004;-42
2022/07/17 02:53:43;;;;;;;12.82;4.00;;;;;;;14.30;100.00;100747.20;1801973;77;21045;-41
2022/07/17 02:56:10;;;;;;;14.58;3.80;;;;;;;14.46;100.00;100747.59;1804503;78;21527;-41
2022/07/17 02:58:38;;;;;;;7.22;3.70;;;;;;;14.60;100.00;100747.17;1816779;77;21721;-42
2022/07/17 03:01:05;;;;;;;5.20;3.50;;;;;;;14.75;100.00;100749.78;1809745;77;21241;-42
2022/07/17 03:03:32;;;;;;;9.85;3.67;;;;;;;14.89;100.00;100755.86;1824092;77;20980;-42
2022/07/17 03:05:59;;;;;;;7.17;3.25;;;;;;;15.03;100.00;100759.77;1816234;77;20935;-41
2022/07/17 03:08:27;;;;;;;4.90;3.30;;;;;;;15.14;100.00;100760.29;1811406;77;20976;-42
2022/07/17 03:10:53;;;;;;;9.10;3.10;;;;;;;15.25;100.00;100765.59;1805717;77;20984;-41
2022/07/17 03:13:20;;;;;;;8.13;2.60;;;;;;;15.37;100.00;100768.64;1807208;77;21178;-42
2022/07/17 03:15:47;;;;;;;3.12;2.60;;;;;;;15.50;100.00;100771.69;1809079;77;21521;-42
2022/07/17 03:18:15;;;;;;;3.00;2.35;;;;;;;15.61;100.00;100769.17;1801510;77;20945;-43
2022/07/17 03:20:42;;;;;;;2.52;2.00;;;;;;;15.72;100.00;100767.03;1822083;77;20960;-42
2022/07/17 03:23:09;;;;;;;4.67;2.45;;;;;;;15.82;100.00;100770.64;1819688;78;21066;-43
2022/07/17 03:25:36;;;;;;;4.60;2.33;;;;;;;15.91;100.00;100767.29;1801394;78;21083;-41
2022/07/17 03:28:05;;;;;;;2.67;1.90;;;;;;;15.96;100.00;100771.02;1791875;78;20984;-41
2022/07/17 03:30:32;;;;;;;8.50;2.20;;;;;;;15.94;100.00;100774.14;1808582;78;21463;-42
2022/07/17 03:32:59;;;;;;;2.80;1.87;;;;;;;15.92;100.00;100784.66;1810857;78;21013;-42
2022/07/17 03:35:26;;;;;;;2.42;2.22;;;;;;;15.96;100.00;100787.98;1804986;78;20963;-42
2022/07/17 03:37:54;;;;;;;10.13;2.12;;;;;;;16.01;100.00;100786.06;1805704;77;21012;-40
2022/07/17 03:40:22;;;;;;;2.67;2.47;;;;;;;16.04;100.00;100801.64;1807977;77;20945;-43
2022/07/17 03:42:48;;;;;;;6.83;1.80;;;;;;;16.04;100.00;100834.72;1811062;77;20992;-42
2022/07/17 03:47:17;;;;;;;4.08;1.77;;;;;;;15.98;100.00;100824.02;1854406;75;22337;-40
2022/07/17 03:49:44;;;;;;;2.50;1.85;;;;;;;15.99;100.00;100821.81;1857685;75;21011;-42
2022/07/17 03:52:10;;;;;;;3.80;1.52;;;;;;;16.04;100.00;100822.53;1853436;77;21025;-42
2022/07/17 03:54:37;;;;;;;3.83;1.57;;;;;;;16.07;100.00;100833.30;1856661;75;21578;-43
2022/07/17 03:57:05;;;;;;;2.20;1.40;;;;;;;16.08;100.00;100822.81;1854105;75;21010;-42
2022/07/17 03:59:32;;;;;;;5.50;1.90;;;;;;;16.16;100.00;100812.06;1857322;75;20933;-41
2022/07/17 04:01:59;;;;;;;1.52;1.42;;;;;;;16.25;100.00;100819.19;1858183;77;20999;-42
2022/07/17 04:04:26;;;;;;;2.77;1.67;;;;;;;16.29;100.00;100819.00;1849513;75;21332;-42
2022/07/17 04:06:53;;;;;;;5.78;1.62;;;;;;;16.36;100.00;100819.19;1853700;75;20987;-42
2022/07/17 04:09:20;;;;;;;2.75;1.62;;;;;;;16.41;100.00;100819.00;1852612;75;20987;-42
2022/07/17 04:11:47;;;;;;;7.50;1.60;;;;;;;16.45;100.00;100819.75;1866922;75;20921;-41
2022/07/17 04:14:15;;;;;;;2.33;1.70;;;;;;;16.50;100.00;100808.66;1857398;75;20921;-42
2022/07/17 04:16:42;;;;;;;4.17;1.45;;;;;;;16.52;100.00;100809.45;1854014;75;21188;-41
2022/07/17 04:19:10;;;;;;;5.67;1.62;;;;;;;16.52;100.00;100810.33;1845098;77;20929;-41
2022/07/17 04:21:37;;;;;;;2.77;1.77;;;;;;;16.53;100.00;100815.08;1847766;77;20936;-42
2022/07/17 04:24:05;;;;;;;1.98;1.72;;;;;;;16.50;100.00;100820.42;1854059;75;21023;-42
2022/07/17 04:26:32;;;;;;;5.20;2.17;;;;;;;16.42;100.00;100812.90;1862446;75;20964;-42
2022/07/17 04:28:59;;;;;;;3.40;1.75;;;;;;;16.37;100.00;100819.59;1847932;76;21042;-42
2022/07/17 04:31:26;;;;;;;3.15;2.02;;;;;;;16.35;100.00;100812.27;1844558;77;20912;-41
2022/07/17 04:33:54;;;;;;;5.40;1.82;;;;;;;16.34;100.00;100813.17;1762261;80;21068;-42
2022/07/17 04:36:21;;;;;;;5.42;2.35;;;;;;;16.37;100.00;100810.88;1766954;80;21031;-41
2022/07/17 04:38:48;;;;;;;1.90;1.80;;;;;;;16.38;100.00;100809.53;1774562;80;20912;-41
2022/07/17 04:41:16;;;;;;;3.47;2.33;;;;;;;16.40;100.00;100808.62;1803698;78;21195;-42
2022/07/17 04:43:43;;;;;;;4.08;2.37;;;;;;;16.40;100.00;100814.69;1804863;78;21497;-41
2022/07/17 04:46:09;;;;;;;2.58;2.35;;;;;;;16.43;100.00;100813.73;1799459;79;21094;-41
2022/07/17 04:48:36;;;;;;;5.55;2.70;;;;;;;16.45;100.00;100821.92;1803562;79;20992;-41
2022/07/17 04:51:03;;;;;;;4.40;2.30;;;;;;;16.47;100.00;100829.25;1779612;79;20990;-41
2022/07/17 04:53:30;;;;;;;3.58;2.40;;;;;;;16.50;100.00;100830.88;1791123;79;21221;-42
2022/07/17 04:55:57;;;;;;;2.10;1.90;;;;;;;16.56;100.00;100828.50;1775043;79;22091;-43
2022/07/17 04:58:24;;;;;;;6.25;2.08;;;;;;;16.63;100.00;100822.98;1784807;79;21018;-41
2022/07/17 05:00:51;;;;;;;2.25;2.02;;;;;;;16.69;100.00;100831.06;1777506;79;21006;-41
2022/07/17 05:03:18;;;;;;;6.37;2.70;;;;;;;16.70;100.00;100827.53;1782177;79;21040;-41
2022/07/17 05:05:45;;;;;;;3.15;2.65;;;;;;;16.73;100.00;100838.30;1774430;79;21091;-41
2022/07/17 05:08:13;;;;;;;6.60;3.00;;;;;;;16.73;100.00;100842.22;1784614;79;21489;-42
2022/07/17 05:10:41;;;;;;;7.90;2.80;;;;;;;16.72;100.00;100840.52;1778108;79;20971;-42
2022/07/17 05:13:08;;;;;;;2.47;2.30;;;;;;;16.71;100.00;100843.61;1785895;79;21002;-42
2022/07/17 05:15:36;;;;;;;7.33;2.55;;;;;;;16.72;100.00;100842.70;1788733;79;20994;-41
2022/07/17 05:18:03;;;;;;;11.40;2.72;;;;;;;16.71;100.00;100851.89;1787753;79;21251;-41
2022/07/17 05:20:30;;;;;;;8.45;2.65;;;;;;;16.69;100.00;100857.19;1787413;79;20963;-40
2022/07/17 05:22:57;;;;;;;8.98;2.80;;;;;;;16.70;100.00;100859.33;1783703;79;20983;-41
2022/07/17 05:25:25;;;;;;;9.75;2.52;;;;;;;16.73;100.00;100869.67;1771324;79;21456;-41
2022/07/17 05:27:52;;;;;;;7.80;2.60;;;;;;;16.73;100.00;100881.43;1793839;79;21469;-41
2022/07/17 05:30:18;;;;;;;6.87;2.85;;;;;;;16.72;100.00;100882.34;1790634;79;21099;-42
2022/07/17 05:32:45;;;;;;;8.23;2.98;;;;;;;16.72;100.00;100889.74;1775630;79;20972;-42
2022/07/17 05:35:15;;;;;;;11.05;2.65;;;;;;;16.69;100.00;100891.61;1775212;79;21028;-42
2022/07/17 05:37:42;;;;;;;5.60;2.17;;;;;;;16.64;100.00;100893.94;1788715;79;20970;-42
2022/07/17 05:40:09;;;;;;;7.55;2.10;;;;;;;16.58;100.00;100894.61;1777413;79;21014;-43
2022/07/17 05:42:36;;;;;;;2.42;2.22;;;;;;;16.50;100.00;100896.20;1780179;79;21221;-43
2022/07/17 05:45:07;;;;;;;3.10;2.20;;;;;;;16.38;100.00;100904.02;1761189;79;20977;-44
2022/07/17 05:47:34;;;;;;;6.40;2.52;;;;;;;16.27;100.00;100908.31;1781519;79;20974;-43
2022/07/17 05:50:01;;;;;;;5.58;2.22;;;;;;;16.17;100.00;100914.78;1785920;79;20975;-44
2022/07/17 05:52:28;;;;;;;6.05;3.12;;;;;;;16.06;100.00;100917.75;1771277;80;21046;-45
2022/07/17 05:54:55;;;;;;;4.47;3.27;;;;;;;15.94;100.00;100923.80;1777776;80;21136;-43
2022/07/17 05:57:22;;;;;;;5.62;3.55;;;;;;;15.80;100.00;100929.89;1790646;79;20983;-44
2022/07/17 05:59:48;;;;;;;7.65;4.15;;;;;;;15.61;100.00;100923.12;1779616;80;20984;-43
2022/07/17 06:02:15;;;;;;;7.78;3.80;;;;;;;15.46;100.00;100920.08;1784714;79;20986;-44
2022/07/17 06:04:42;;;;;;;6.35;3.85;;;;;;;15.29;100.00;100912.79;1779837;80;21090;-43
2022/07/17 06:07:09;;;;;;;6.85;3.50;;;;;;;15.16;100.00;100914.08;1780716;80;21331;-43
2022/07/17 06:09:35;;;;;;;5.80;2.98;;;;;;;15.04;100.00;100912.70;1769556;80;20995;-43
2022/07/17 06:12:03;;;;;;;4.72;2.92;;;;;;;14.94;100.00;100919.93;1786003;80;21299;-43
2022/07/17 06:14:30;;;;;;;4.83;2.87;;;;;;;14.85;100.00;100921.05;1751223;81;20973;-44
2022/07/17 06:16:57;;;;;;;6.08;2.30;;;;;;;14.78;100.00;100923.44;1779836;79;20947;-44
2022/07/17 06:19:24;;;;;;;4.25;2.80;;;;;;;14.70;100.00;100935.77;1780561;80;21149;-43
2022/07/17 06:21:50;;;;;;;3.33;1.98;;;;;;;14.64;100.00;100932.45;1775499;80;20980;-45
2022/07/17 06:24:17;;;;;;;3.47;2.25;;;;;;;14.60;100.00;100931.27;1775488;80;21106;-43
2022/07/17 06:26:44;;;;;;;9.33;2.33;;;;;;;14.56;100.00;100934.85;1782366;79;20951;-45
2022/07/17 06:29:11;;;;;;;5.58;2.67;;;;;;;14.51;100.00;100944.09;1779888;80;21497;-46
2022/07/17 06:31:38;;;;;;;3.87;2.25;;;;;;;14.42;100.00;100940.44;1760576;80;21403;-44
2022/07/17 06:34:05;;;;;;;4.78;2.62;;;;;;;14.36;100.00;100934.50;1773529;79;21623;-44
2022/07/17 06:36:33;;;;;;;2.58;2.37;;;;;;;14.31;100.00;100939.42;1784163;80;20991;-45
2022/07/17 06:38:59;;;;;;;4.40;2.42;;;;;;;14.26;100.00;100943.44;1786909;80;20955;-44
2022/07/17 06:41:26;;;;;;;9.38;2.35;;;;;;;14.23;100.00;100948.73;1781318;80;20947;-44
2022/07/17 06:43:53;;;;;;;2.27;2.10;;;;;;;14.14;100.00;100958.09;1781524;80;21184;-44
2022/07/17 06:46:20;;;;;;;2.65;2.17;;;;;;;14.08;100.00;100959.09;1777017;80;21508;-45
2022/07/17 06:48:51;;;;;;;6.03;1.85;;;;;;;14.04;100.00;100958.76;1779574;80;20979;-45
2022/07/17 06:51:15;;;;;;;1.75;1.65;;;;;;;13.96;100.00;100956.34;1782084;80;20971;-45
2022/07/17 06:53:42;;;;;;;4.80;2.30;;;;;;;13.89;100.00;100962.59;1776437;80;21061;-44
2022/07/17 06:56:09;;;;;;;4.33;1.77;;;;;;;13.83;100.00;100969.26;1773094;80;21242;-46
2022/07/17 06:58:36;;;;;;;5.95;2.72;;;;;;;13.76;100.00;100964.17;1780050;80;20931;-45
2022/07/17 07:01:02;;;;;;;5.90;2.15;;;;;;;13.72;100.00;100965.14;1733780;80;20990;-45
2022/07/17 07:03:29;;;;;;;3.17;1.75;;;;;;;13.66;100.00;100953.59;1787821;80;20943;-44
2022/07/17 07:05:56;;;;;;;3.95;1.60;;;;;;;13.64;100.00;100956.67;1781099;80;21021;-44
2022/07/17 07:08:25;;;;;;;3.52;1.90;;;;;;;13.63;100.00;100967.97;1782691;80;21192;-44
2022/07/17 07:10:52;;;;;;;2.80;2.58;;;;;;;13.66;100.00;100969.20;1769154;80;20936;-46
2022/07/17 07:13:19;;;;;;;3.60;3.30;;;;;;;13.65;100.00;100971.39;1771709;80;20920;-45
2022/07/17 07:15:47;;;;;;;2.37;2.15;;;;;;;13.66;100.00;100978.30;1777357;80;20976;-45
2022/07/17 07:18:14;;;;;;;3.58;1.90;;;;;;;13.60;100.00;100981.05;1769164;80;21033;-45
2022/07/17 07:20:41;;;;;;;6.70;3.70;;;;;;;13.58;100.00;100979.77;1779367;80;21195;-44
2022/07/17 07:23:08;;;;;;;10.50;6.17;;;;;;;13.56;100.00;100973.75;1788572;79;20971;-45
2022/07/17 07:25:35;;;;;;;7.45;5.40;;;;;;;13.56;100.00;100985.91;1777819;79;21571;-44
2022/07/17 07:28:03;;;;;;;2.37;1.90;;;;;;;13.56;100.00;100991.12;1782422;80;20975;-46
2022/07/17 07:30:31;;;;;;;2.98;1.57;;;;;;;13.57;100.00;101000.63;1788801;79;21043;-44
2022/07/17 07:32:58;;;;;;;2.52;2.30;;;;;;;13.55;100.00;100995.45;1786998;80;21273;-46
2022/07/17 07:35:25;;;;;;;2.20;2.00;;;;;;;13.55;100.00;100982.91;1783787;79;21520;-45
2022/07/17 07:37:52;;;;;;;3.22;1.77;;;;;;;13.55;100.00;100999.81;1780379;79;20939;-44
2022/07/17 07:40:19;;;;;;;1.85;1.60;;;;;;;13.51;100.00;101005.52;1777408;80;20987;-45
2022/07/17 07:42:46;;;;;;;2.35;1.72;;;;;;;13.50;100.00;101002.05;1773952;79;20971;-45
2022/07/17 07:45:12;;;;;;;6.20;2.30;;;;;;;13.54;100.00;100999.41;1779568;79;21861;-43
2022/07/17 07:47:43;;;;;;;2.33;1.82;;;;;;;13.58;100.00;101016.64;1773321;79;20974;-45
2022/07/17 07:50:11;;;;;;;1.70;1.60;;;;;;;13.59;100.00;101030.06;1747898;80;21569;-44
2022/07/17 07:52:38;;;;;;;2.92;1.70;;;;;;;13.58;100.00;101038.30;1723255;82;21045;-44
2022/07/17 07:55:08;;;;;;;6.83;1.75;;;;;;;13.56;100.00;101041.84;1763399;81;20936;-45
2022/07/17 07:57:35;;;;;;;3.35;1.87;;;;;;;13.53;100.00;101047.95;1745498;82;21519;-44
2022/07/17 08:00:05;;;;;;;1.98;1.60;;;;;;;13.56;100.00;101061.34;1751909;81;20956;-45
2022/07/17 08:02:34;;;;;;;5.00;1.75;;;;;;;13.55;100.00;101059.63;1762386;79;21012;-44
2022/07/17 08:05:02;;;;;;;2.85;1.80;;;;;;;13.52;100.00;101057.10;1766178;80;21000;-45
2022/07/17 08:07:29;;;;;;;1.70;1.60;;;;;;;13.48;100.00;101050.63;1712941;81;21567;-44
2022/07/17 08:09:56;;;;;;;1.70;1.60;;;;;;;13.48;100.00;101051.09;1764397;79;21163;-45
2022/07/17 08:12:23;;;;;;;2.22;2.00;;;;;;;13.50;100.00;101043.66;1761801;79;21024;-47
2022/07/17 08:14:50;;;;;;;3.17;1.72;;;;;;;13.55;100.00;101018.86;1762943;81;20979;-45
2022/07/17 08:17:19;;;;;;;1.85;1.65;;;;;;;13.62;100.00;101011.78;1761909;81;20995;-45
2022/07/17 08:19:46;;;;;;;3.30;1.80;;;;;;;13.75;100.00;101005.86;1763028;80;21033;-45
2022/07/17 08:22:13;;;;;;;3.65;1.50;;;;;;;13.88;100.00;101006.42;1758224;81;21106;-45
2022/07/17 08:24:39;;;;;;;2.00;1.90;;;;;;;13.97;100.00;101000.98;1757146;81;20984;-44
2022/07/17 08:27:07;;;;;;;7.67;2.47;;;;;;;14.01;100.00;100991.38;1753912;79;21051;-44
2022/07/17 08:29:33;;;;;;;5.28;2.33;;;;;;;14.04;100.00;100982.19;1757122;81;20943;-44
2022/07/17 08:32:00;;;;;;;2.58;2.17;;;;;;;14.05;100.00;100991.27;1754937;79;21042;-45
2022/07/17 08:34:27;;;;;;;4.22;2.10;;;;;;;14.08;100.00;101004.64;1749582;81;21144;-45
2022/07/17 08:36:53;;;;;;;2.08;1.75;;;;;;;14.09;100.00;101010.25;1759928;79;21033;-45
2022/07/17 08:39:20;;;;;;;2.55;2.08;;;;;;;14.12;100.00;101006.73;1764527;81;20967;-45
2022/07/17 08:41:46;;;;;;;2.40;1.82;;;;;;;14.15;100.00;100997.55;1752867;81;20999;-43
2022/07/17 08:44:14;;;;;;;3.77;1.87;;;;;;;14.14;100.00;100988.02;1758858;79;20932;-44
2022/07/17 08:46:41;;;;;;;1.85;1.50;;;;;;;14.11;100.00;100983.73;1756799;79;21120;-45
2022/07/17 08:49:08;;;;;;;1.90;1.60;;;;;;;14.06;100.00;100961.75;1783191;79;21000;-45
2022/07/17 08:51:35;;;;;;;1.60;1.50;;;;;;;14.05;100.00;100948.33;1786894;79;20975;-45
2022/07/17 08:54:02;;;;;;;1.60;1.50;;;;;;;14.07;100.00;100941.33;1782906;79;20992;-45
2022/07/17 08:56:29;;;;;;;1.20;1.20;;;;;;;14.11;100.00;100934.73;1781043;79;20987;-45
2022/07/17 08:58:56;;;;;;;1.50;1.40;;;;;;;14.04;100.00;100937.50;1777639;79;21215;-45
2022/07/17 09:01:24;;;;;;;8.95;1.60;;;;;;;14.01;100.00;100948.43;1785231;79;21520;-45
2022/07/17 09:04:05;;;;;;;1.70;1.60;;;;;;;14.03;100.00;100924.52;1780382;79;20990;-44
2022/07/17 09:06:29;;;;;;;2.12;1.42;;;;;;;14.04;100.00;100926.23;1774947;79;20940;-46
2022/07/17 09:09:12;;;;;;;2.20;1.22;;;;;;;14.05;100.00;100954.83;1782243;79;20979;-45
2022/07/17 09:11:48;;;;;;;1.55;1.47;;;;;;;14.13;100.00;100930.34;1777948;79;21241;-45
2022/07/17 09:14:15;;;;;;;;;;;;;;;14.19;100.00;100924.97;1774506;79;21030;-43
2022/07/17 09:16:52;;;;;;;1.60;1.22;;;;;;;14.36;100.00;100920.18;1778904;79;20098;-45
2022/07/17 09:19:34;;;;;;;1.60;1.02;;;;;;;14.55;100.00;100923.59;1777398;79;20975;-45
2022/07/17 09:22:23;;;;;;;7.28;1.42;;;;;;;14.74;100.00;100933.52;1779149;79;20967;-45
2022/07/17 09:24:58;;;;;;;1.37;1.27;;;;;;;14.94;100.00;100927.28;1791101;79;21190;-45
2022/07/17 09:27:32;;;;;;;2.02;1.45;;;;;;;15.15;100.00;100925.37;1775595;79;21567;-44
2022/07/17 09:30:10;;;;;;;1.30;1.20;;;;;;;15.27;100.00;100934.16;1756370;81;21010;-45
2022/07/17 09:32:40;;;;;;;1.27;1.20;;;;;;;15.37;100.00;100941.25;1776084;80;20968;-44
2022/07/17 09:35:10;;;;;;;1.72;1.07;;;;;;;15.39;100.00;100930.31;1778754;79;21497;-43
2022/07/17 09:37:37;;;;;;;1.05;0.95;;;;;;;15.39;100.00;100932.92;1776210;79;22005;-43
2022/07/17 09:41:09;;;;;;;1.55;1.15;;;;;;;15.45;100.00;100939.24;1778412;79;20980;-44
2022/07/17 09:42:41;;;;;;;1.77;0.95;;;;;;;15.50;100.00;100953.45;1770569;80;20968;-44
2022/07/17 09:45:10;;;;;;;1.70;1.10;;;;;;;15.56;100.00;100971.98;1746386;79;21506;-44
2022/07/17 09:47:38;;;;;;;0.80;0.80;;;;;;;15.75;100.00;100975.70;1738777;81;20919;-43
2022/07/17 09:50:07;;;;;;;2.42;0.90;;;;;;;16.07;100.00;100978.20;1772247;80;21698;-43
2022/07/17 09:52:38;;;;;;;3.25;0.80;;;;;;;16.38;100.00;100976.73;1741576;80;21058;-43
2022/07/17 09:55:05;;;;;;;2.72;0.90;;;;;;;16.68;100.00;100965.70;1765064;80;20975;-43
2022/07/17 09:57:34;;;;;;;0.82;0.82;;;;;;;16.83;100.00;100954.70;1741935;81;21022;-44
2022/07/17 10:00:06;;;;;;;1.22;0.80;;;;;;;16.81;100.00;100950.81;1763168;81;21559;-44
2022/07/17 10:02:35;;;;;;;1.20;1.10;;;;;;;16.99;100.00;100943.68;1762735;81;21392;-44
2022/07/17 10:05:02;;;;;;;1.60;0.98;;;;;;;17.28;100.00;100949.55;1767688;80;21512;-45
2022/07/17 10:07:29;;;;;;;1.10;0.98;;;;;;;17.46;100.00;100953.24;1763329;81;20983;-43
2022/07/17 10:09:58;;;;;;;1.00;0.93;;;;;;;17.75;100.00;100950.75;1767731;80;20939;-43
2022/07/17 10:12:24;;;;;;;3.30;0.95;;;;;;;18.44;100.00;100944.88;1737850;81;21527;-44
2022/07/17 10:14:51;;;;;;;2.83;0.95;;;;;;;19.02;100.00;100944.95;1767835;80;21031;-44
2022/07/17 10:17:20;;;;;;;0.70;0.70;;;;;;;19.18;100.00;100935.45;1767692;80;20983;-43
2022/07/17 10:19:50;;;;;;;0.70;0.70;;;;;;;19.27;100.00;100923.67;1767691;80;21462;-43
2022/07/17 10:22:17;;;;;;;3.42;1.35;;;;;;;19.44;100.00;100905.80;1767890;80;20991;-44
2022/07/17 10:24:47;;;;;;;2.67;0.90;;;;;;;19.59;97.88;100916.00;1772348;80;20993;-43
2022/07/17 10:27:23;;;;;;;1.95;1.00;;;;;;;19.56;97.16;100909.59;1764568;80;21912;-43
2022/07/17 10:30:08;;;;;;;1.80;1.40;;;;;;;19.70;94.50;100911.54;1762487;80;20935;-45
2022/07/17 10:32:35;;;;;;;0.70;0.70;;;;;;;19.80;92.83;100919.81;1767967;80;20964;-45
2022/07/17 10:35:08;;;;;;;3.80;2.83;;;;;;;19.70;91.11;100914.16;1768128;80;20968;-43
2022/07/17 10:37:40;;;;;;;5.03;4.53;;;;;;;19.66;88.28;100920.50;1744520;80;20939;-42
2022/07/17 10:40:21;;;;;;;1.77;1.67;;;;;;;19.80;91.92;100917.19;1767863;80;21957;-42
2022/07/17 10:43:00;;;;;;;4.30;0.70;;;;;;;20.08;93.27;100914.50;1770578;80;20987;-42
2022/07/17 10:45:45;;;;;;;1.77;0.90;;;;;;;20.36;90.73;100907.36;1767745;80;20901;-42
2022/07/17 10:48:19;;;;;;;1.87;0.82;;;;;;;20.41;88.71;100909.72;1759820;81;21022;-42
2022/07/17 10:50:55;;;;;;;0.70;0.70;;;;;;;20.37;88.85;100902.94;1759809;80;21023;-42
2022/07/17 10:53:26;;;;;;;0.62;0.62;;;;;;;20.30;83.76;100896.31;1761037;80;21214;-43
2022/07/17 10:56:06;;;;;;;1.02;0.80;;;;;;;20.07;85.91;100895.25;1759805;80;21095;-43
2022/07/17 10:58:37;;;;;;;0.75;0.75;;;;;;;20.29;87.53;100895.45;1759017;80;21522;-43
2022/07/17 11:01:12;;;;;;;0.72;0.72;;;;;;;20.84;88.03;100886.90;1763884;80;20995;-42
2022/07/17 11:03:50;;;;;;;2.58;1.70;;;;;;;21.19;86.13;100893.28;1768448;80;20976;-44
2022/07/17 11:06:30;;;;;;;1.70;1.27;;;;;;;21.38;84.76;100890.93;1763761;80;22273;-43
2022/07/17 11:09:06;;;;;;;3.30;0.70;;;;;;;21.46;83.31;100889.15;1755409;81;20893;-44
2022/07/17 11:11:44;;;;;;;1.25;0.90;;;;;;;21.57;82.71;100892.48;1759665;80;20940;-43
2022/07/17 11:14:25;;;;;;;1.27;1.00;;;;;;;21.88;82.86;100890.73;1758224;80;21036;-43
2022/07/17 11:17:01;;;;;;;2.70;0.90;;;;;;;22.29;78.77;100893.96;1765969;80;21522;-44
2022/07/17 11:19:39;;;;;;;0.98;0.80;;;;;;;22.61;78.77;100895.59;1755464;81;21374;-44
2022/07/17 11:22:10;;;;;;;0.78;0.78;;;;;;;22.66;76.34;100888.23;1761550;80;20976;-44
2022/07/17 11:24:46;;;;;;;0.75;0.62;;;;;;;22.73;74.67;100901.89;1764757;80;20975;-42